Ridgeville, Alabama
Current Conditions -  °F | °C
As of 2:15 PM on Sunday 25 Jan 2015 (Local Time) from K8A0 Reporting Station
Broken Clouds Broken Clouds  
Wind Chill: 57°   Ceiling: 10000
Heat Index: 57°   Visibility: 10mi
Dew Point: 41°   Wind: 15mph
Humidity: 55%   Direction: 210°SSW
Pressure: 29.68"   Gusts: 20mph
Location:  34.0771°N, 86.0689°W
Report Text: K8A0 252015Z AUTO 21013G17KT 10SM BKN100 14/05 A2968 RMK AO2
Loading
Personal Weather Stations






























Interactive Weather Map New forecast layout! Learn more

10-Day Weather Forecast

Advertisements
Track Severe Weather on mobile